Time;durP1;ratioP1;P1;durP2;ratioP2;P2;SDS_P1;SDS_P2;PMS_P1;PMS_P2;Temp;Humidity;BMP_temperature;BMP_pressure;BME280_temperature;BME280_humidity;BME280_pressure;Samples;Min_cycle;Max_cycle;Signal;HPM_P1;HPM_P2
2022/10/26 00:02:03;;;;;;;9.13;7.20;;;12.20;99.90;;;;;;5099507;28;20483;-70
2022/10/26 00:04:30;;;;;;;11.57;8.20;;;12.20;99.90;;;;;;5101730;28;20551;-71
2022/10/26 00:06:57;;;;;;;9.90;7.50;;;12.30;99.90;;;;;;5101868;28;20477;-72
2022/10/26 00:09:23;;;;;;;9.70;7.40;;;12.20;99.90;;;;;;5099387;28;20453;-72
2022/10/26 00:11:52;;;;;;;9.93;8.10;;;12.20;99.90;;;;;;5099945;28;20480;-71
2022/10/26 00:14:19;;;;;;;9.30;7.40;;;12.20;99.90;;;;;;5101850;28;20453;-71
2022/10/26 00:16:47;;;;;;;11.47;8.00;;;12.20;99.90;;;;;;5099940;28;20806;-72
2022/10/26 00:19:14;;;;;;;11.50;7.77;;;12.20;99.90;;;;;;5099588;28;20543;-72
2022/10/26 00:21:40;;;;;;;11.57;8.50;;;12.20;99.90;;;;;;5099481;28;20491;-71
2022/10/26 00:24:07;;;;;;;12.00;7.97;;;12.20;99.90;;;;;;5099659;28;20544;-71
2022/10/26 00:26:34;;;;;;;9.77;8.00;;;12.10;99.90;;;;;;5099684;28;20500;-71
2022/10/26 00:29:01;;;;;;;10.00;8.37;;;12.10;99.90;;;;;;5099427;28;20481;-71
2022/10/26 00:31:28;;;;;;;9.97;7.47;;;12.10;99.90;;;;;;5100024;28;20492;-70
2022/10/26 00:33:57;;;;;;;10.60;7.73;;;12.10;99.90;;;;;;5098915;28;20499;-71
2022/10/26 00:36:25;;;;;;;11.77;8.37;;;12.10;99.90;;;;;;5098172;28;20471;-72
2022/10/26 00:38:53;;;;;;;14.80;7.40;;;12.10;99.90;;;;;;5097539;28;20544;-72
2022/10/26 00:41:23;;;;;;;11.67;7.97;;;12.10;99.90;;;;;;5098197;28;20547;-72
2022/10/26 00:43:50;;;;;;;9.27;7.10;;;12.10;99.90;;;;;;5097961;28;20495;-71
2022/10/26 00:46:21;;;;;;;9.13;8.20;;;12.10;99.90;;;;;;5097656;28;20458;-72
2022/10/26 00:48:53;;;;;;;9.90;8.70;;;12.10;99.90;;;;;;5097621;28;20820;-72
2022/10/26 00:51:29;;;;;;;12.50;8.17;;;12.10;99.90;;;;;;5097173;28;20437;-71
2022/10/26 00:53:56;;;;;;;11.93;8.43;;;12.00;99.90;;;;;;5097184;28;20438;-71
2022/10/26 00:56:23;;;;;;;11.43;7.43;;;12.00;99.90;;;;;;5097207;28;20461;-72
2022/10/26 00:58:51;;;;;;;12.77;8.20;;;12.10;99.90;;;;;;5097184;28;20457;-72
2022/10/26 01:01:18;;;;;;;10.53;8.30;;;12.00;99.90;;;;;;5097035;28;20463;-71
2022/10/26 01:03:46;;;;;;;11.00;8.20;;;12.00;99.90;;;;;;5097608;28;20501;-72
2022/10/26 01:06:14;;;;;;;10.33;8.17;;;12.00;99.90;;;;;;5097251;28;20787;-70
2022/10/26 01:08:43;;;;;;;12.97;8.00;;;11.90;99.90;;;;;;5097240;28;20453;-70
2022/10/26 01:11:10;;;;;;;12.63;7.67;;;11.90;99.90;;;;;;5098145;28;20848;-70
2022/10/26 01:13:38;;;;;;;11.90;8.17;;;11.90;99.90;;;;;;5097586;28;20529;-71
2022/10/26 01:16:21;;;;;;;10.37;7.80;;;11.90;99.90;;;;;;5097329;28;20544;-71
2022/10/26 01:18:57;;;;;;;10.63;7.33;;;11.90;99.90;;;;;;5097110;28;20540;-71
2022/10/26 01:21:46;;;;;;;12.93;7.80;;;11.90;99.90;;;;;;5097200;28;20460;-71
2022/10/26 01:24:45;;;;;;;11.57;8.17;;;11.90;99.90;;;;;;5096774;28;20894;-71
2022/10/26 01:27:29;;;;;;;9.50;7.80;;;11.90;99.90;;;;;;5096937;28;20525;-71
2022/10/26 01:30:25;;;;;;;12.63;8.00;;;11.80;99.90;;;;;;5097439;28;20440;-71
2022/10/26 01:33:20;;;;;;;10.70;7.70;;;11.80;99.90;;;;;;5096255;28;20440;-71
2022/10/26 01:36:01;;;;;;;9.73;8.00;;;11.80;99.90;;;;;;5098445;28;20457;-70
2022/10/26 01:38:34;;;;;;;13.93;8.30;;;11.80;99.90;;;;;;5098264;28;20449;-71
2022/10/26 01:41:08;;;;;;;8.80;7.60;;;11.80;99.90;;;;;;5099024;28;20448;-71
2022/10/26 01:43:40;;;;;;;9.43;8.43;;;11.70;99.90;;;;;;5098680;28;20465;-71
2022/10/26 01:46:11;;;;;;;10.63;8.00;;;11.70;99.90;;;;;;5097474;28;20489;-71
2022/10/26 01:48:40;;;;;;;9.83;7.80;;;11.70;99.90;;;;;;5098936;28;20442;-71
2022/10/26 01:51:09;;;;;;;14.63;8.00;;;11.80;99.90;;;;;;5099924;28;20471;-71
2022/10/26 01:53:36;;;;;;;14.33;8.23;;;11.80;99.90;;;;;;5098117;28;20540;-71
2022/10/26 01:56:03;;;;;;;10.27;8.63;;;11.70;99.90;;;;;;5096708;28;20461;-70
2022/10/26 01:58:59;;;;;;;13.17;8.10;;;11.70;99.90;;;;;;5098307;28;20463;-70
2022/10/26 02:02:20;;;;;;;9.70;7.63;;;11.70;99.90;;;;;;5023437;28;20489;-70
2022/10/26 02:05:01;;;;;;;11.87;7.97;;;11.80;99.90;;;;;;5014942;28;20811;-71
2022/10/26 02:07:37;;;;;;;10.23;7.87;;;11.70;99.90;;;;;;5014652;28;20437;-71
2022/10/26 02:10:14;;;;;;;13.50;8.27;;;11.70;99.90;;;;;;5075362;28;20543;-71
2022/10/26 02:12:47;;;;;;;9.30;7.70;;;11.70;99.90;;;;;;5096542;28;20528;-71
2022/10/26 02:15:21;;;;;;;10.33;8.30;;;11.70;99.90;;;;;;5096795;28;20877;-71
2022/10/26 02:17:54;;;;;;;12.47;8.47;;;11.60;99.90;;;;;;5096939;28;20448;-71
2022/10/26 02:20:25;;;;;;;12.30;8.20;;;11.70;99.90;;;;;;5098445;28;20530;-71
2022/10/26 02:22:55;;;;;;;9.33;8.20;;;11.60;99.90;;;;;;5098001;28;20469;-70
2022/10/26 02:25:25;;;;;;;11.93;9.10;;;11.60;99.90;;;;;;5099649;28;20944;-70
2022/10/26 02:27:56;;;;;;;9.27;7.60;;;11.60;99.90;;;;;;5097920;28;20537;-70
2022/10/26 02:30:23;;;;;;;10.13;8.87;;;11.60;99.90;;;;;;5097896;28;20441;-71
2022/10/26 02:32:53;;;;;;;12.73;8.90;;;11.60;99.90;;;;;;5097729;28;20453;-70
2022/10/26 02:35:25;;;;;;;12.60;8.80;;;11.60;99.90;;;;;;5097966;28;20853;-71
2022/10/26 02:37:54;;;;;;;10.90;9.00;;;11.60;99.90;;;;;;5097324;28;20882;-70
2022/10/26 02:40:25;;;;;;;10.20;8.17;;;11.60;99.90;;;;;;5098150;28;20869;-70
2022/10/26 02:42:53;;;;;;;11.33;8.83;;;11.60;99.90;;;;;;5097285;28;20785;-71
2022/10/26 02:45:23;;;;;;;10.77;7.73;;;11.60;99.90;;;;;;5097690;28;20500;-71
2022/10/26 02:47:51;;;;;;;14.60;7.77;;;11.60;99.90;;;;;;5097039;28;20909;-71
2022/10/26 02:50:19;;;;;;;11.10;8.03;;;11.50;99.90;;;;;;5097473;28;20489;-70
2022/10/26 02:52:52;;;;;;;12.20;8.63;;;11.50;99.90;;;;;;5097537;28;20457;-71
2022/10/26 02:55:25;;;;;;;10.27;8.67;;;11.50;99.90;;;;;;5096580;28;20532;-71
2022/10/26 02:57:56;;;;;;;10.97;7.70;;;11.40;99.90;;;;;;5096899;28;20836;-71
2022/10/26 03:00:23;;;;;;;12.60;8.90;;;11.40;99.90;;;;;;5097080;28;20549;-71
2022/10/26 03:02:56;;;;;;;11.90;8.87;;;11.40;99.90;;;;;;5096383;28;20485;-71
2022/10/26 03:05:25;;;;;;;9.30;8.10;;;11.40;99.90;;;;;;5096948;28;20441;-71
2022/10/26 03:07:55;;;;;;;11.83;8.60;;;11.30;99.90;;;;;;5097100;28;20938;-71
2022/10/26 03:10:22;;;;;;;10.17;8.20;;;11.30;99.90;;;;;;5096648;28;20898;-70
2022/10/26 03:12:49;;;;;;;11.37;8.20;;;11.20;99.90;;;;;;5096296;28;20545;-70
2022/10/26 03:15:16;;;;;;;10.17;8.13;;;11.20;99.90;;;;;;5096344;28;20453;-71
2022/10/26 03:17:43;;;;;;;11.07;8.33;;;11.20;99.90;;;;;;5096240;28;20464;-71
2022/10/26 03:20:11;;;;;;;17.50;10.00;;;11.20;99.90;;;;;;5096508;28;20529;-70
2022/10/26 03:22:38;;;;;;;12.73;8.20;;;11.20;99.90;;;;;;5096306;28;20998;-71
2022/10/26 03:25:07;;;;;;;10.77;8.60;;;11.20;99.90;;;;;;5096655;28;20449;-71
2022/10/26 03:27:35;;;;;;;11.53;9.00;;;11.20;99.90;;;;;;5096282;28;20796;-71
2022/10/26 03:30:01;;;;;;;11.03;8.40;;;11.10;99.90;;;;;;5096459;28;20433;-71
2022/10/26 03:32:28;;;;;;;12.00;8.60;;;11.20;99.90;;;;;;5096829;28;20492;-71
2022/10/26 03:34:55;;;;;;;17.43;9.37;;;11.10;99.90;;;;;;5096259;28;20453;-71
2022/10/26 03:37:22;;;;;;;9.90;8.00;;;11.10;99.90;;;;;;5095339;28;20453;-70
2022/10/26 03:39:49;;;;;;;11.53;9.10;;;11.10;99.90;;;;;;5095682;28;20457;-70
2022/10/26 03:42:17;;;;;;;13.03;8.83;;;11.10;99.90;;;;;;5095722;28;20457;-70
2022/10/26 03:44:46;;;;;;;11.37;8.77;;;11.10;99.90;;;;;;5096248;28;20485;-71
2022/10/26 03:47:12;;;;;;;9.93;8.43;;;11.10;99.90;;;;;;5095212;28;20510;-71
2022/10/26 03:49:39;;;;;;;13.30;9.10;;;11.10;99.90;;;;;;5096067;28;20521;-70
2022/10/26 03:52:06;;;;;;;13.83;8.90;;;11.00;99.90;;;;;;5095179;28;20488;-70
2022/10/26 03:54:33;;;;;;;20.70;10.10;;;11.10;99.90;;;;;;5095195;28;20509;-70
2022/10/26 03:57:00;;;;;;;13.23;9.60;;;11.10;99.90;;;;;;5094898;28;20450;-71
2022/10/26 03:59:28;;;;;;;12.40;9.53;;;11.10;99.90;;;;;;5094930;28;20979;-71
2022/10/26 04:01:55;;;;;;;13.10;9.83;;;11.00;99.90;;;;;;5095243;28;20540;-72
2022/10/26 04:04:21;;;;;;;12.77;9.60;;;11.00;99.90;;;;;;5095725;28;20499;-69
2022/10/26 04:06:48;;;;;;;11.37;9.10;;;11.00;99.90;;;;;;5095424;28;20464;-70
2022/10/26 04:09:15;;;;;;;12.63;9.67;;;11.00;99.90;;;;;;5095224;28;20780;-70
2022/10/26 04:11:42;;;;;;;12.67;9.47;;;11.00;99.90;;;;;;5094796;28;20780;-70
2022/10/26 04:14:09;;;;;;;11.03;9.40;;;10.90;99.90;;;;;;5095302;28;20460;-70
2022/10/26 04:16:37;;;;;;;15.03;8.90;;;10.90;99.90;;;;;;5095183;28;20453;-70
2022/10/26 04:19:04;;;;;;;13.60;9.50;;;10.90;99.90;;;;;;5094671;28;20793;-70
2022/10/26 04:21:32;;;;;;;11.97;8.80;;;10.90;99.90;;;;;;5096499;28;20453;-70
2022/10/26 04:24:00;;;;;;;11.30;8.87;;;10.90;99.90;;;;;;5098516;28;20936;-70
2022/10/26 04:26:28;;;;;;;11.07;8.03;;;10.80;99.90;;;;;;5098250;28;20464;-69
2022/10/26 04:28:54;;;;;;;11.67;8.80;;;10.80;99.90;;;;;;5097694;28;20987;-70
2022/10/26 04:31:21;;;;;;;11.03;8.90;;;10.80;99.90;;;;;;5097977;28;20548;-70
2022/10/26 04:33:50;;;;;;;12.63;8.80;;;10.90;99.90;;;;;;5097908;28;20459;-71
2022/10/26 04:36:16;;;;;;;11.03;8.63;;;10.80;99.90;;;;;;5097596;28;20925;-71
2022/10/26 04:38:43;;;;;;;10.47;7.87;;;10.80;99.90;;;;;;5097550;28;20459;-71
2022/10/26 04:41:10;;;;;;;9.80;8.20;;;10.80;99.90;;;;;;5097291;28;20499;-70
2022/10/26 04:43:37;;;;;;;10.90;8.13;;;10.90;99.90;;;;;;5097220;28;20508;-70
2022/10/26 04:46:04;;;;;;;8.73;7.83;;;10.80;99.90;;;;;;5097539;28;20457;-70
2022/10/26 04:48:31;;;;;;;11.73;7.60;;;10.80;99.90;;;;;;5097187;28;20548;-70
2022/10/26 04:51:00;;;;;;;12.03;8.97;;;10.80;99.90;;;;;;5097140;28;20548;-71
2022/10/26 04:53:28;;;;;;;15.40;8.13;;;10.80;99.90;;;;;;5096767;28;20454;-71
2022/10/26 04:55:58;;;;;;;10.70;7.63;;;10.80;99.90;;;;;;5096534;28;20543;-71
2022/10/26 04:58:25;;;;;;;12.50;8.87;;;10.80;99.90;;;;;;5096914;28;20758;-71
2022/10/26 05:00:52;;;;;;;13.87;9.20;;;10.80;99.90;;;;;;5096653;28;20457;-70
2022/10/26 05:03:19;;;;;;;14.90;10.50;;;10.80;99.90;;;;;;5096365;28;20478;-70
2022/10/26 05:05:46;;;;;;;21.23;9.37;;;10.80;99.90;;;;;;5096814;28;20524;-71
2022/10/26 05:08:15;;;;;;;11.40;8.53;;;10.80;99.90;;;;;;5097103;28;20453;-71
2022/10/26 05:10:42;;;;;;;10.23;7.97;;;10.70;99.90;;;;;;5096952;28;20481;-71
2022/10/26 05:13:10;;;;;;;12.83;8.53;;;10.70;99.90;;;;;;5097637;28;20472;-71
2022/10/26 05:15:37;;;;;;;12.30;9.07;;;10.70;99.90;;;;;;5096424;28;20540;-71
2022/10/26 05:18:07;;;;;;;12.80;9.60;;;10.70;99.90;;;;;;5096292;28;20453;-71
2022/10/26 05:20:35;;;;;;;15.77;8.90;;;10.60;99.90;;;;;;5078633;28;20793;-71
2022/10/26 05:23:03;;;;;;;11.30;9.50;;;10.60;99.90;;;;;;5096541;28;20543;-71
2022/10/26 05:25:34;;;;;;;14.47;9.30;;;10.60;99.90;;;;;;5096548;28;20545;-71
2022/10/26 05:28:03;;;;;;;14.07;9.37;;;10.60;99.90;;;;;;5096475;28;20583;-71
2022/10/26 05:30:32;;;;;;;17.00;9.57;;;10.60;99.90;;;;;;5096855;28;20453;-70
2022/10/26 05:33:01;;;;;;;11.93;9.80;;;10.60;99.90;;;;;;5095835;28;20544;-71
2022/10/26 05:35:28;;;;;;;11.93;8.97;;;10.50;99.90;;;;;;5096643;28;20552;-71
2022/10/26 05:37:55;;;;;;;12.40;9.50;;;10.50;99.90;;;;;;5096495;28;20840;-71
2022/10/26 05:40:22;;;;;;;11.60;8.80;;;10.50;99.90;;;;;;5096156;28;20834;-71
2022/10/26 05:42:50;;;;;;;12.30;9.00;;;10.50;99.90;;;;;;5096450;28;20538;-70
2022/10/26 05:45:17;;;;;;;15.73;9.63;;;10.50;99.90;;;;;;5096011;28;20495;-71
2022/10/26 05:47:45;;;;;;;12.07;8.60;;;10.50;99.90;;;;;;5096061;28;20933;-70
2022/10/26 05:50:13;;;;;;;11.80;8.90;;;10.50;99.90;;;;;;5095728;28;20457;-71
2022/10/26 05:52:40;;;;;;;13.70;9.00;;;10.50;99.90;;;;;;5095749;28;20449;-71
2022/10/26 05:55:08;;;;;;;14.57;10.40;;;10.50;99.90;;;;;;5096035;28;20464;-71
2022/10/26 05:57:36;;;;;;;14.60;11.80;;;10.60;99.90;;;;;;5095951;28;20463;-70
2022/10/26 06:00:08;;;;;;;16.17;10.80;;;10.50;99.90;;;;;;5095771;28;20454;-71
2022/10/26 06:02:46;;;;;;;10.63;8.83;;;10.50;99.90;;;;;;5095279;28;20449;-71
2022/10/26 06:05:19;;;;;;;15.47;13.10;;;10.50;99.90;;;;;;5096718;28;20472;-71
2022/10/26 06:07:46;;;;;;;13.73;9.57;;;10.50;99.90;;;;;;5096052;28;20442;-71
2022/10/26 06:10:14;;;;;;;14.60;9.40;;;10.50;99.90;;;;;;5095420;28;20453;-71
2022/10/26 06:12:41;;;;;;;17.60;10.23;;;10.50;99.90;;;;;;5095505;28;20536;-71
2022/10/26 06:15:14;;;;;;;12.87;9.23;;;10.50;99.90;;;;;;5095408;28;20459;-70
2022/10/26 06:17:52;;;;;;;13.10;9.50;;;10.50;99.90;;;;;;5095749;28;20544;-70
2022/10/26 06:20:38;;;;;;;12.07;9.73;;;10.50;99.90;;;;;;5095287;28;20903;-71
2022/10/26 06:23:30;;;;;;;23.33;16.13;;;10.50;99.90;;;;;;5095245;28;20452;-70
2022/10/26 06:26:03;;;;;;;15.47;11.17;;;10.50;99.90;;;;;;5094742;28;20951;-70
2022/10/26 06:28:41;;;;;;;11.10;9.13;;;10.50;99.90;;;;;;5095172;28;20541;-70
2022/10/26 06:31:10;;;;;;;12.80;9.23;;;10.60;99.90;;;;;;5095677;28;20445;-70
2022/10/26 06:33:36;;;;;;;17.47;10.33;;;10.60;99.90;;;;;;5095043;28;20449;-70
2022/10/26 06:36:13;;;;;;;16.30;9.90;;;10.60;99.90;;;;;;5095246;28;20844;-71
2022/10/26 06:38:44;;;;;;;12.33;9.40;;;10.60;99.90;;;;;;5094817;28;20437;-71
2022/10/26 06:41:14;;;;;;;11.50;8.67;;;10.60;99.90;;;;;;5095278;28;20441;-71
2022/10/26 06:43:41;;;;;;;14.03;9.73;;;10.60;99.90;;;;;;5095813;28;20968;-72
2022/10/26 06:46:19;;;;;;;13.00;8.93;;;10.70;99.90;;;;;;5095575;28;20779;-72
2022/10/26 06:48:53;;;;;;;15.00;9.43;;;10.70;99.90;;;;;;5095589;28;20437;-72
2022/10/26 06:51:21;;;;;;;9.80;7.97;;;10.70;99.90;;;;;;5097115;28;20437;-71
2022/10/26 06:53:56;;;;;;;11.40;8.60;;;10.70;99.90;;;;;;5095801;28;20543;-72
2022/10/26 06:56:23;;;;;;;12.03;8.90;;;10.80;99.90;;;;;;5095293;28;20448;-70
2022/10/26 06:58:54;;;;;;;12.23;8.70;;;10.80;99.90;;;;;;5094763;28;20457;-71
2022/10/26 07:01:22;;;;;;;15.00;9.47;;;10.80;99.90;;;;;;5094710;28;20465;-70
2022/10/26 07:03:49;;;;;;;11.53;9.13;;;10.90;99.90;;;;;;5094720;28;20485;-71
2022/10/26 07:06:16;;;;;;;17.33;9.50;;;10.90;99.90;;;;;;5094545;28;20496;-71
2022/10/26 07:08:42;;;;;;;17.47;11.10;;;10.90;99.90;;;;;;5094326;28;20937;-71
2022/10/26 07:11:09;;;;;;;11.67;8.53;;;11.00;99.90;;;;;;5094321;28;20552;-71
2022/10/26 07:13:36;;;;;;;13.10;8.77;;;11.10;99.90;;;;;;5094311;28;20548;-71
2022/10/26 07:16:03;;;;;;;9.93;8.23;;;11.10;99.90;;;;;;5094494;28;20539;-71
2022/10/26 07:18:31;;;;;;;10.33;8.07;;;11.10;99.90;;;;;;5094340;28;20992;-71
2022/10/26 07:20:58;;;;;;;13.37;10.93;;;11.10;99.90;;;;;;5094255;28;20560;-71
2022/10/26 07:23:25;;;;;;;14.10;9.13;;;11.20;99.90;;;;;;5094799;28;20459;-71
2022/10/26 07:25:52;;;;;;;17.43;9.93;;;11.20;99.90;;;;;;5094470;28;20969;-71
2022/10/26 07:28:19;;;;;;;14.37;9.83;;;11.30;99.90;;;;;;5094268;28;20485;-70
2022/10/26 07:30:46;;;;;;;11.20;8.60;;;11.40;99.90;;;;;;5094482;28;20504;-71
2022/10/26 07:33:14;;;;;;;15.13;8.43;;;11.40;99.90;;;;;;5094232;28;20500;-70
2022/10/26 07:35:42;;;;;;;11.87;9.53;;;11.50;99.90;;;;;;5094233;28;20532;-71
2022/10/26 07:38:09;;;;;;;14.20;8.90;;;11.50;99.90;;;;;;5094314;28;20523;-70
2022/10/26 07:40:37;;;;;;;10.77;8.30;;;11.60;99.90;;;;;;5094195;28;20489;-71
2022/10/26 07:43:04;;;;;;;14.70;9.13;;;11.60;99.90;;;;;;5094867;28;20754;-71
2022/10/26 07:45:31;;;;;;;13.20;8.80;;;11.70;99.90;;;;;;5093856;28;20487;-70
2022/10/26 07:47:58;;;;;;;9.07;8.17;;;11.70;99.90;;;;;;5094095;28;20544;-71
2022/10/26 07:50:25;;;;;;;14.40;9.70;;;11.70;99.90;;;;;;5093683;28;20457;-70
2022/10/26 07:52:53;;;;;;;16.03;9.60;;;11.70;99.90;;;;;;5093876;28;20866;-70
2022/10/26 07:55:20;;;;;;;13.40;10.17;;;11.70;99.90;;;;;;5095377;28;20470;-71
2022/10/26 07:57:47;;;;;;;16.03;9.77;;;11.80;99.90;;;;;;5097711;28;20459;-70
2022/10/26 08:00:15;;;;;;;14.80;10.80;;;11.80;99.90;;;;;;5097867;28;20540;-71
2022/10/26 08:02:42;;;;;;;13.07;9.97;;;11.80;99.90;;;;;;5097676;28;20454;-71
2022/10/26 08:05:09;;;;;;;26.30;11.97;;;11.80;99.90;;;;;;5097570;28;20487;-71
2022/10/26 08:07:41;;;;;;;13.47;10.57;;;11.80;99.90;;;;;;5098032;28;20492;-70
2022/10/26 08:10:10;;;;;;;12.33;9.37;;;11.90;99.90;;;;;;5097896;28;20453;-70
2022/10/26 08:12:37;;;;;;;15.33;9.53;;;11.90;99.90;;;;;;5097711;28;20457;-70
2022/10/26 08:15:05;;;;;;;9.67;8.57;;;12.00;99.90;;;;;;5097648;28;20479;-71
2022/10/26 08:17:32;;;;;;;12.10;9.77;;;12.10;99.90;;;;;;5097346;28;20967;-71
2022/10/26 08:19:59;;;;;;;15.17;9.20;;;12.10;99.90;;;;;;5098229;28;20850;-71
2022/10/26 08:22:26;;;;;;;16.00;9.33;;;12.20;99.90;;;;;;5097907;28;20457;-72
2022/10/26 08:24:52;;;;;;;9.93;8.73;;;12.20;99.90;;;;;;5097931;28;20506;-72
2022/10/26 08:27:21;;;;;;;11.37;9.07;;;12.30;99.90;;;;;;5097740;28;20540;-72
2022/10/26 08:29:47;;;;;;;13.23;9.70;;;12.40;99.90;;;;;;5097454;28;20495;-72
2022/10/26 08:32:15;;;;;;;15.30;9.50;;;12.50;99.90;;;;;;5097502;28;20479;-71
2022/10/26 08:34:42;;;;;;;10.63;9.53;;;12.60;99.90;;;;;;5097671;28;20489;-70
2022/10/26 08:37:09;;;;;;;9.40;8.40;;;12.70;99.90;;;;;;5097333;28;20453;-71
2022/10/26 08:39:36;;;;;;;13.20;9.90;;;12.70;99.90;;;;;;5097126;28;20921;-70
2022/10/26 08:42:09;;;;;;;11.37;8.93;;;12.80;99.90;;;;;;5097287;28;20463;-71
2022/10/26 08:44:42;;;;;;;12.93;9.00;;;12.90;99.90;;;;;;5097065;28;20969;-69
2022/10/26 08:47:15;;;;;;;14.33;10.20;;;13.00;99.90;;;;;;5097765;28;20761;-69
2022/10/26 08:49:49;;;;;;;11.97;9.03;;;13.10;99.90;;;;;;5097139;28;20488;-69
2022/10/26 08:52:21;;;;;;;12.30;9.37;;;13.10;99.90;;;;;;5097125;28;20532;-70
2022/10/26 08:54:52;;;;;;;14.60;9.57;;;13.20;99.90;;;;;;5097575;28;20441;-70
2022/10/26 08:57:24;;;;;;;11.30;8.77;;;13.30;99.90;;;;;;5096882;28;20457;-70
2022/10/26 08:59:57;;;;;;;12.90;8.77;;;13.30;99.90;;;;;;5097112;28;20441;-70
2022/10/26 09:02:24;;;;;;;12.70;10.67;;;13.40;99.90;;;;;;5097169;28;20442;-69
2022/10/26 09:04:52;;;;;;;13.10;9.20;;;13.50;99.90;;;;;;5096606;28;20484;-69
2022/10/26 09:07:47;;;;;;;11.50;8.30;;;13.50;99.90;;;;;;5097159;28;20457;-71
2022/10/26 09:10:31;;;;;;;12.07;8.43;;;13.60;99.90;;;;;;5097214;28;20445;-71
2022/10/26 09:13:05;;;;;;;13.97;9.03;;;13.70;99.90;;;;;;5096804;28;20816;-70
2022/10/26 09:15:44;;;;;;;15.80;9.20;;;13.80;99.90;;;;;;5096305;28;20437;-69
2022/10/26 09:18:22;;;;;;;15.00;9.33;;;13.90;99.90;;;;;;5096897;28;20536;-70
2022/10/26 09:21:03;;;;;;;12.33;9.77;;;13.90;99.90;;;;;;5096721;28;20448;-71
2022/10/26 09:23:45;;;;;;;10.13;8.30;;;13.90;99.90;;;;;;5096565;28;20437;-70
2022/10/26 09:26:14;;;;;;;12.93;8.63;;;13.90;99.90;;;;;;5096371;28;20765;-70
2022/10/26 09:28:44;;;;;;;13.13;8.57;;;14.00;99.90;;;;;;5096026;28;20488;-70
2022/10/26 09:31:16;;;;;;;13.00;8.47;;;14.10;99.90;;;;;;5096323;28;20453;-70
2022/10/26 09:33:43;;;;;;;10.97;8.63;;;14.20;99.90;;;;;;5096261;28;20516;-70
2022/10/26 09:36:15;;;;;;;11.00;8.30;;;14.30;99.90;;;;;;5096426;28;20450;-70
2022/10/26 09:38:46;;;;;;;11.67;9.57;;;14.40;99.90;;;;;;5095943;28;20908;-70
2022/10/26 09:41:27;;;;;;;14.00;9.70;;;14.50;99.90;;;;;;5096793;28;20446;-69
2022/10/26 09:43:58;;;;;;;11.40;8.67;;;14.60;99.90;;;;;;5097734;28;20441;-71
2022/10/26 09:46:31;;;;;;;8.97;7.97;;;14.60;99.90;;;;;;5097986;28;20475;-71
2022/10/26 09:49:01;;;;;;;12.50;8.47;;;14.60;99.90;;;;;;5096035;28;20455;-70
2022/10/26 09:51:28;;;;;;;12.23;8.87;;;14.70;99.90;;;;;;5095791;28;20461;-70
2022/10/26 09:53:57;;;;;;;13.53;7.63;;;14.80;99.90;;;;;;5095642;28;20453;-70
2022/10/26 09:56:26;;;;;;;12.03;9.27;;;14.90;99.90;;;;;;5096479;28;20536;-70
2022/10/26 09:58:58;;;;;;;16.30;9.63;;;15.00;99.90;;;;;;5095806;28;20938;-70
2022/10/26 10:01:36;;;;;;;14.07;8.73;;;15.20;99.90;;;;;;5095773;28;20537;-70
2022/10/26 10:04:16;;;;;;;9.57;8.57;;;15.20;99.90;;;;;;5095589;28;20442;-70
2022/10/26 10:06:44;;;;;;;11.67;8.10;;;15.30;99.90;;;;;;5095176;28;20476;-70
2022/10/26 10:09:13;;;;;;;12.83;8.47;;;15.30;99.90;;;;;;5095466;28;20457;-70
2022/10/26 10:11:42;;;;;;;9.30;7.93;;;15.40;99.90;;;;;;5095098;28;20540;-70
2022/10/26 10:14:16;;;;;;;13.17;8.30;;;15.50;99.90;;;;;;5095232;28;20463;-69
2022/10/26 10:16:53;;;;;;;12.50;7.90;;;15.60;99.90;;;;;;5095504;28;20473;-69
2022/10/26 10:19:26;;;;;;;9.80;7.70;;;15.60;99.90;;;;;;5095025;28;20524;-70
2022/10/26 10:21:56;;;;;;;8.53;7.63;;;15.60;99.90;;;;;;5095336;28;20481;-70
2022/10/26 10:24:28;;;;;;;11.80;7.20;;;15.70;99.90;;;;;;5095015;28;20902;-69
2022/10/26 10:27:01;;;;;;;11.50;6.77;;;15.80;99.90;;;;;;5095249;28;20487;-69
2022/10/26 10:29:29;;;;;;;7.30;6.50;;;15.90;99.90;;;;;;5094680;28;20507;-69
2022/10/26 10:31:59;;;;;;;11.80;7.03;;;16.00;99.90;;;;;;5095010;28;20453;-69
2022/10/26 10:34:26;;;;;;;9.43;6.67;;;16.10;99.90;;;;;;5095074;28;20461;-70
2022/10/26 10:36:53;;;;;;;9.20;7.97;;;16.20;99.90;;;;;;5094916;28;20824;-69
2022/10/26 10:39:35;;;;;;;9.70;7.90;;;16.30;99.90;;;;;;5094808;28;20449;-70
2022/10/26 10:42:03;;;;;;;6.77;5.30;;;16.50;99.90;;;;;;5094646;28;20961;-70
2022/10/26 10:44:32;;;;;;;7.30;5.87;;;16.50;99.90;;;;;;5094895;28;20455;-68
2022/10/26 10:47:05;;;;;;;6.27;5.67;;;16.60;99.90;;;;;;5094605;28;20560;-69
2022/10/26 10:49:33;;;;;;;7.10;6.23;;;16.60;99.90;;;;;;5094777;28;20437;-71
2022/10/26 10:52:00;;;;;;;10.67;5.63;;;16.70;99.90;;;;;;5094953;28;20452;-69
2022/10/26 10:54:30;;;;;;;10.33;5.60;;;16.90;99.90;;;;;;5094649;28;20965;-71
2022/10/26 10:57:07;;;;;;;6.43;5.10;;;17.00;99.90;;;;;;5094520;28;20548;-70
2022/10/26 10:59:51;;;;;;;8.90;4.80;;;17.00;99.90;;;;;;5094665;28;20528;-69
2022/10/26 11:02:50;;;;;;;5.50;4.40;;;17.10;99.90;;;;;;5094155;28;20578;-70
2022/10/26 11:05:38;;;;;;;8.23;5.10;;;17.10;99.90;;;;;;5090972;28;20531;-70
2022/10/26 11:08:08;;;;;;;4.13;3.73;;;17.20;99.90;;;;;;5093892;28;20437;-69
2022/10/26 11:10:39;;;;;;;11.70;4.77;;;17.30;99.90;;;;;;5094087;28;20886;-69
2022/10/26 11:13:16;;;;;;;5.73;3.60;;;17.30;99.90;;;;;;5095276;28;20459;-71
2022/10/26 11:15:46;;;;;;;5.93;3.30;;;17.30;99.90;;;;;;5095039;28;20434;-71
2022/10/26 11:18:18;;;;;;;4.90;4.00;;;17.30;99.90;;;;;;5094689;28;20532;-71
2022/10/26 11:20:53;;;;;;;5.30;3.20;;;17.40;99.90;;;;;;5094248;28;20449;-71
2022/10/26 11:23:25;;;;;;;5.13;3.20;;;17.50;99.90;;;;;;5095166;28;20441;-71
2022/10/26 11:25:57;;;;;;;5.63;3.20;;;17.50;99.90;;;;;;5094507;28;20527;-70
2022/10/26 11:28:46;;;;;;;6.37;3.10;;;17.60;99.90;;;;;;5095096;28;20576;-71
2022/10/26 11:31:18;;;;;;;4.03;3.37;;;17.70;99.90;;;;;;5096750;28;20451;-71
2022/10/26 11:34:01;;;;;;;3.77;3.13;;;17.70;99.90;;;;;;5099700;28;20509;-71
2022/10/26 11:36:33;;;;;;;6.43;2.80;;;17.80;99.90;;;;;;5098498;28;20441;-69
2022/10/26 11:39:10;;;;;;;3.17;2.87;;;17.80;99.90;;;;;;5098252;28;20588;-71
2022/10/26 11:41:45;;;;;;;7.10;3.33;;;17.80;99.90;;;;;;5098110;28;20487;-69
2022/10/26 11:44:17;;;;;;;5.20;3.13;;;18.00;99.90;;;;;;5098430;28;20455;-70
2022/10/26 11:46:47;;;;;;;3.30;3.00;;;18.30;99.90;;;;;;5098056;28;21013;-70
2022/10/26 11:49:21;;;;;;;3.93;2.60;;;18.90;99.90;;;;;;5098305;28;20535;-70
2022/10/26 11:51:55;;;;;;;4.60;2.90;;;19.90;99.90;;;;;;5097857;28;20489;-70
2022/10/26 11:54:28;;;;;;;4.43;2.70;;;20.90;99.90;;;;;;5097626;28;20455;-70
2022/10/26 11:56:57;;;;;;;3.93;2.30;;;22.20;99.90;;;;;;5097608;28;20441;-69
2022/10/26 11:59:26;;;;;;;5.27;2.60;;;23.50;99.90;;;;;;5097891;28;20460;-70
2022/10/26 12:01:57;;;;;;;5.70;2.67;;;24.50;99.90;;;;;;5097708;28;20469;-70
2022/10/26 12:04:29;;;;;;;7.70;2.50;;;25.40;99.90;;;;;;5097754;28;20989;-70
2022/10/26 12:07:01;;;;;;;4.90;2.90;;;26.40;99.90;;;;;;5097322;28;20497;-71
2022/10/26 12:09:32;;;;;;;4.70;1.97;;;27.40;99.90;;;;;;5097641;28;20870;-71
2022/10/26 12:12:07;;;;;;;8.73;2.87;;;27.80;99.90;;;;;;5097814;28;20437;-72
2022/10/26 12:14:39;;;;;;;18.27;3.43;;;28.30;97.90;;;;;;5097818;28;20441;-71
2022/10/26 12:17:11;;;;;;;10.17;2.47;;;28.80;92.20;;;;;;5098329;28;20434;-71
2022/10/26 12:19:46;;;;;;;4.60;2.50;;;28.60;90.90;;;;;;5098076;28;20532;-71
2022/10/26 12:22:17;;;;;;;2.40;2.20;;;28.60;87.90;;;;;;5097672;28;20437;-71
2022/10/26 12:24:44;;;;;;;2.20;2.00;;;28.40;88.40;;;;;;5097156;28;20438;-72
2022/10/26 12:27:30;;;;;;;6.87;2.10;;;28.50;84.70;;;;;;5097392;28;20480;-71
2022/10/26 12:30:23;;;;;;;2.57;2.00;;;28.90;83.50;;;;;;5097286;28;20516;-71
2022/10/26 12:32:53;;;;;;;3.13;2.10;;;29.20;80.00;;;;;;5097660;28;20783;-71
2022/10/26 12:35:34;;;;;;;3.00;2.37;;;29.60;76.80;;;;;;5097471;28;20457;-72
2022/10/26 12:38:18;;;;;;;6.87;2.23;;;29.60;73.90;;;;;;5097362;28;20452;-71
2022/10/26 12:40:45;;;;;;;6.13;2.37;;;29.30;72.40;;;;;;5096224;28;20455;-71
2022/10/26 12:43:35;;;;;;;5.43;2.53;;;29.20;75.00;;;;;;5096588;28;20453;-71
2022/10/26 12:46:42;;;;;;;2.63;1.70;;;29.50;71.50;;;;;;5097233;28;20489;-71
2022/10/26 12:49:39;;;;;;;2.70;2.10;;;29.40;70.60;;;;;;5097879;28;20441;-70
2022/10/26 12:52:20;;;;;;;6.10;2.43;;;28.70;71.20;;;;;;5062505;28;20913;-69
2022/10/26 12:55:02;;;;;;;3.50;1.83;;;28.40;72.50;;;;;;5097000;28;20520;-71
2022/10/26 12:57:37;;;;;;;3.10;1.73;;;28.40;72.20;;;;;;5097332;28;20537;-71
2022/10/26 13:00:05;;;;;;;4.93;2.70;;;28.30;73.30;;;;;;5097628;28;20754;-72